createdAt,value
2023-02-12T00:01:21.281Z,11.50
2023-02-12T00:03:48.612Z,10.07
2023-02-12T00:06:16.118Z,10.40
2023-02-12T00:08:43.801Z,10.87
2023-02-12T00:11:17.623Z,10.73
2023-02-12T00:13:44.858Z,12.30
2023-02-12T00:16:16.291Z,11.90
2023-02-12T00:18:44.543Z,11.23
2023-02-12T00:21:13.776Z,12.20
2023-02-12T00:23:41.311Z,11.70
2023-02-12T00:26:10.974Z,11.70
2023-02-12T00:28:38.688Z,11.60
2023-02-12T00:31:13.385Z,11.30
2023-02-12T00:33:40.713Z,11.97
2023-02-12T00:36:09.351Z,11.27
2023-02-12T00:38:36.320Z,11.13
2023-02-12T00:41:03.169Z,12.23
2023-02-12T00:43:29.916Z,12.83
2023-02-12T00:45:57.075Z,11.90
2023-02-12T00:48:24.165Z,11.87
2023-02-12T00:50:51.159Z,12.60
2023-02-12T00:53:17.974Z,11.20
2023-02-12T00:55:44.664Z,11.37
2023-02-12T00:58:12.074Z,11.97
2023-02-12T01:00:38.950Z,10.70
2023-02-12T01:03:06.013Z,11.07
2023-02-12T01:05:33.170Z,10.97
2023-02-12T01:08:00.494Z,11.43
2023-02-12T01:10:27.922Z,11.03
2023-02-12T01:12:54.951Z,9.77
2023-02-12T01:15:22.224Z,10.10
2023-02-12T01:17:53.110Z,10.87
2023-02-12T01:20:23.153Z,10.37
2023-02-12T01:22:50.789Z,10.97
2023-02-12T01:25:20.648Z,11.47
2023-02-12T01:27:48.232Z,10.07
2023-02-12T01:30:16.232Z,10.97
2023-02-12T01:32:43.935Z,10.53
2023-02-12T01:35:10.776Z,10.77
2023-02-12T01:37:38.571Z,11.47
2023-02-12T01:40:08.052Z,10.73
2023-02-12T01:42:35.115Z,10.30
2023-02-12T01:45:14.019Z,10.83
2023-02-12T01:47:43.983Z,11.43
2023-02-12T01:50:19.066Z,11.20
2023-02-12T01:52:55.994Z,11.37
2023-02-12T01:55:23.460Z,10.53
2023-02-12T01:57:50.759Z,10.77
2023-02-12T02:00:22.995Z,10.63
2023-02-12T02:02:56.833Z,11.03
2023-02-12T02:05:38.918Z,10.37
2023-02-12T02:08:06.056Z,10.03
2023-02-12T02:10:32.782Z,10.43
2023-02-12T02:13:18.577Z,10.00
2023-02-12T02:15:51.135Z,10.53
2023-02-12T02:18:31.271Z,11.17
2023-02-12T02:21:23.631Z,9.53
2023-02-12T02:24:29.456Z,10.10
2023-02-12T02:27:14.792Z,9.90
2023-02-12T02:29:46.745Z,10.77
2023-02-12T02:32:32.242Z,10.53
2023-02-12T02:35:13.117Z,10.87
2023-02-12T02:37:51.374Z,10.23
2023-02-12T02:40:25.163Z,9.47
2023-02-12T02:43:09.788Z,9.60
2023-02-12T02:45:55.863Z,10.27
2023-02-12T02:48:40.699Z,10.17
2023-02-12T02:51:18.167Z,9.63
2023-02-12T02:53:58.318Z,9.77
2023-02-12T02:56:27.453Z,10.57
2023-02-12T02:59:06.102Z,9.53
2023-02-12T03:02:06.648Z,9.77
2023-02-12T03:04:42.933Z,10.40
2023-02-12T03:07:35.513Z,10.70
2023-02-12T03:10:20.285Z,10.53
2023-02-12T03:13:01.123Z,10.33
2023-02-12T03:15:54.658Z,10.53
2023-02-12T03:18:28.128Z,10.77
2023-02-12T03:21:05.563Z,11.57
2023-02-12T03:24:01.462Z,10.83
2023-02-12T03:26:49.230Z,10.07
2023-02-12T03:29:16.092Z,10.93
2023-02-12T03:32:27.670Z,10.87
2023-02-12T03:35:20.702Z,9.47
2023-02-12T03:38:33.787Z,10.10
2023-02-12T03:41:08.291Z,9.80
2023-02-12T03:44:00.017Z,10.47
2023-02-12T03:47:07.810Z,10.87
2023-02-12T03:49:47.607Z,10.47
2023-02-12T03:52:14.424Z,10.87
2023-02-12T03:54:41.360Z,10.10
2023-02-12T03:57:15.639Z,10.13
2023-02-12T03:59:44.282Z,10.00
2023-02-12T04:02:13.816Z,11.00
2023-02-12T04:04:40.941Z,9.70
2023-02-12T04:07:07.991Z,10.70
2023-02-12T04:09:34.742Z,10.63
2023-02-12T04:12:40.209Z,11.20
2023-02-12T04:15:41.613Z,9.67
2023-02-12T04:18:27.937Z,10.07
2023-02-12T04:21:25.357Z,9.97
2023-02-12T04:24:15.402Z,9.83
2023-02-12T04:27:01.432Z,9.53
2023-02-12T04:29:52.431Z,9.57
2023-02-12T04:32:39.919Z,10.23
2023-02-12T04:35:26.307Z,9.50
2023-02-12T04:38:05.897Z,9.93
2023-02-12T04:40:33.095Z,9.77
2023-02-12T04:42:59.940Z,10.23
2023-02-12T04:45:30.978Z,10.83
2023-02-12T04:47:57.808Z,9.43
2023-02-12T04:50:25.646Z,10.17
2023-02-12T04:52:52.632Z,9.97
2023-02-12T04:55:19.356Z,9.63
2023-02-12T04:57:46.108Z,10.13
2023-02-12T05:00:15.039Z,9.50
2023-02-12T05:02:42.030Z,10.33
2023-02-12T05:05:08.907Z,10.17
2023-02-12T05:07:35.618Z,11.90
2023-02-12T05:10:02.561Z,11.33
2023-02-12T05:12:29.282Z,10.20
2023-02-12T05:14:58.064Z,10.13
2023-02-12T05:17:25.355Z,11.30
2023-02-12T05:19:52.296Z,10.97
2023-02-12T05:22:19.103Z,11.57
2023-02-12T05:24:45.981Z,12.30
2023-02-12T05:27:12.954Z,11.57
2023-02-12T05:29:39.840Z,12.03
2023-02-12T05:32:07.081Z,11.50
2023-02-12T05:34:34.992Z,11.57
2023-02-12T05:37:01.740Z,11.43
2023-02-12T05:39:28.440Z,12.57
2023-02-12T05:41:55.216Z,12.13
2023-02-12T05:44:21.948Z,11.50
2023-02-12T05:46:48.771Z,10.87
2023-02-12T05:49:15.617Z,12.80
2023-02-12T05:51:42.449Z,12.63
2023-02-12T05:54:10.237Z,12.63
2023-02-12T05:56:46.788Z,11.70
2023-02-12T05:59:21.788Z,10.83
2023-02-12T06:01:51.580Z,12.37
2023-02-12T06:04:25.890Z,13.13
2023-02-12T06:06:54.329Z,12.23
2023-02-12T06:09:21.468Z,13.53
2023-02-12T06:11:48.577Z,13.03
2023-02-12T06:14:18.162Z,12.20
2023-02-12T06:16:50.848Z,13.13
2023-02-12T06:19:19.440Z,13.70
2023-02-12T06:21:46.276Z,11.63
2023-02-12T06:24:14.732Z,11.20
2023-02-12T06:26:41.648Z,11.83
2023-02-12T06:29:08.652Z,12.20
2023-02-12T06:31:37.155Z,12.40
2023-02-12T06:34:08.126Z,12.70
2023-02-12T06:36:39.858Z,12.53
2023-02-12T06:39:07.726Z,13.07
2023-02-12T06:41:34.899Z,11.17
2023-02-12T06:44:01.652Z,13.63
2023-02-12T06:46:28.430Z,12.50
2023-02-12T06:49:00.652Z,12.57
2023-02-12T06:51:29.366Z,12.47
2023-02-12T06:53:56.792Z,13.13
2023-02-12T06:56:26.812Z,13.97
2023-02-12T06:58:59.455Z,13.33
2023-02-12T07:01:28.828Z,15.43
2023-02-12T07:04:02.342Z,14.73
2023-02-12T07:06:35.992Z,15.03
2023-02-12T07:09:04.496Z,13.60
2023-02-12T07:11:37.968Z,13.93
2023-02-12T07:14:06.717Z,15.57
2023-02-12T07:16:36.325Z,14.67
2023-02-12T07:19:03.077Z,14.40
2023-02-12T07:21:29.850Z,13.07
2023-02-12T07:23:56.640Z,13.80
2023-02-12T07:26:23.832Z,13.47
2023-02-12T07:28:51.908Z,14.83
2023-02-12T07:31:23.955Z,15.60
2023-02-12T07:33:55.396Z,12.83
2023-02-12T07:36:23.878Z,15.07
2023-02-12T07:38:51.407Z,14.37
2023-02-12T07:41:23.025Z,14.63
2023-02-12T07:43:59.301Z,15.20
2023-02-12T07:46:31.170Z,13.77
2023-02-12T07:49:01.417Z,14.97
2023-02-12T07:51:28.876Z,17.30
2023-02-12T07:53:56.116Z,16.47
2023-02-12T07:56:30.692Z,15.93
2023-02-12T07:58:59.133Z,15.23
2023-02-12T08:01:33.958Z,14.43
2023-02-12T08:04:08.377Z,15.17
2023-02-12T08:06:41.033Z,15.07
2023-02-12T08:09:12.080Z,16.90
2023-02-12T08:11:40.385Z,15.73
2023-02-12T08:14:08.687Z,17.80
2023-02-12T08:16:41.960Z,18.40
2023-02-12T08:19:17.929Z,18.47
2023-02-12T08:21:51.457Z,17.57
2023-02-12T08:24:18.372Z,18.70
2023-02-12T08:26:45.364Z,20.07
2023-02-12T08:29:17.427Z,23.10
2023-02-12T08:31:48.803Z,23.37
2023-02-12T08:34:22.296Z,22.30
2023-02-12T08:36:51.511Z,20.63
2023-02-12T08:39:18.953Z,18.83
2023-02-12T08:41:46.935Z,20.83
2023-02-12T08:44:14.603Z,22.13
2023-02-12T08:46:47.294Z,20.10
2023-02-12T08:49:18.930Z,21.20
2023-02-12T08:51:49.806Z,21.40
2023-02-12T08:54:29.171Z,22.30
2023-02-12T08:57:02.224Z,25.87
2023-02-12T08:59:29.736Z,24.77
2023-02-12T09:01:56.816Z,24.00
2023-02-12T09:04:27.078Z,25.97
2023-02-12T09:06:54.910Z,24.87
2023-02-12T09:09:22.177Z,26.10
2023-02-12T09:11:49.725Z,27.13
2023-02-12T09:14:18.879Z,27.87
2023-02-12T09:16:45.856Z,27.10
2023-02-12T09:19:14.438Z,27.20
2023-02-12T09:21:42.136Z,26.60
2023-02-12T09:24:09.738Z,24.80
2023-02-12T09:26:36.730Z,24.07
2023-02-12T09:29:05.058Z,23.60
2023-02-12T09:31:33.607Z,24.90
2023-02-12T09:34:06.716Z,22.67
2023-02-12T09:36:34.009Z,22.90
2023-02-12T09:39:01.584Z,22.87
2023-02-12T09:42:17.781Z,20.43
2023-02-12T09:45:16.392Z,18.87
2023-02-12T09:48:08.323Z,19.30
2023-02-12T09:50:55.176Z,18.70
2023-02-12T09:53:28.034Z,18.43
2023-02-12T09:55:56.979Z,17.53
2023-02-12T09:58:47.266Z,18.47
2023-02-12T10:01:18.360Z,17.57
2023-02-12T10:03:48.667Z,18.80
2023-02-12T10:06:21.157Z,18.10
2023-02-12T10:09:30.880Z,17.93
2023-02-12T10:12:14.379Z,16.77
2023-02-12T10:14:59.894Z,17.37
2023-02-12T10:17:38.234Z,16.90
2023-02-12T10:21:02.391Z,14.00
2023-02-12T10:23:46.967Z,14.43
2023-02-12T10:26:29.341Z,13.73
2023-02-12T10:29:09.085Z,14.77
2023-02-12T10:31:42.159Z,15.73
2023-02-12T10:34:24.826Z,14.60
2023-02-12T10:36:58.883Z,15.13
2023-02-12T10:39:37.804Z,14.13
2023-02-12T10:42:39.089Z,14.37
2023-02-12T10:45:14.001Z,12.20
2023-02-12T10:47:41.234Z,12.63
2023-02-12T10:50:37.295Z,12.87
2023-02-12T10:53:04.064Z,13.33
2023-02-12T10:55:39.142Z,12.70
2023-02-12T10:58:21.964Z,13.33
2023-02-12T11:00:59.202Z,16.60
2023-02-12T11:03:34.356Z,15.50
2023-02-12T11:06:25.756Z,16.20
2023-02-12T11:08:53.479Z,15.93
2023-02-12T11:11:38.861Z,13.50
2023-02-12T11:14:17.921Z,14.93
2023-02-12T11:16:54.569Z,15.03
2023-02-12T11:19:32.211Z,16.63
2023-02-12T11:22:18.845Z,17.60
2023-02-12T11:24:47.089Z,18.00
2023-02-12T11:27:16.614Z,19.03
2023-02-12T11:29:45.995Z,18.20
2023-02-12T11:32:20.150Z,18.83
2023-02-12T11:35:12.477Z,16.33
2023-02-12T11:37:47.004Z,15.00
2023-02-12T11:40:21.830Z,15.13
2023-02-12T11:42:59.032Z,15.20
2023-02-12T11:45:50.464Z,19.43
2023-02-12T11:48:26.112Z,18.50
2023-02-12T11:50:57.114Z,17.43
2023-02-12T11:53:34.272Z,16.43
2023-02-12T11:56:06.978Z,15.77
2023-02-12T11:58:33.909Z,13.20
2023-02-12T12:01:05.510Z,14.60
2023-02-12T12:04:00.438Z,15.73
2023-02-12T12:06:54.168Z,16.13
2023-02-12T12:09:43.732Z,15.10
2023-02-12T12:12:21.605Z,13.67
2023-02-12T12:15:19.977Z,13.10
2023-02-12T12:18:11.646Z,12.57
2023-02-12T12:20:55.189Z,12.97
2023-02-12T12:23:44.110Z,14.33
2023-02-12T12:26:25.423Z,13.63
2023-02-12T12:29:16.793Z,14.30
2023-02-12T12:31:50.463Z,13.37
2023-02-12T12:34:24.355Z,15.83
2023-02-12T12:37:15.626Z,16.60
2023-02-12T12:40:12.640Z,15.57
2023-02-12T12:42:55.184Z,15.27
2023-02-12T12:45:41.841Z,14.07
2023-02-12T12:48:47.986Z,12.00
2023-02-12T12:51:51.858Z,12.33
2023-02-12T12:54:38.059Z,11.33
2023-02-12T12:57:36.704Z,11.97
2023-02-12T13:00:39.465Z,11.77
2023-02-12T13:03:37.761Z,11.90
2023-02-12T13:06:29.296Z,12.37
2023-02-12T13:09:25.798Z,15.07
2023-02-12T13:12:40.270Z,12.67
2023-02-12T13:15:39.493Z,11.67
2023-02-12T13:18:49.840Z,11.77
2023-02-12T13:21:38.453Z,10.83
2023-02-12T13:24:32.492Z,14.10
2023-02-12T13:27:05.793Z,12.27
2023-02-12T13:29:59.591Z,11.30
2023-02-12T13:32:32.168Z,13.03
2023-02-12T13:35:00.631Z,10.70
2023-02-12T13:37:41.116Z,11.20
2023-02-12T13:40:15.264Z,10.80
2023-02-12T13:43:19.876Z,10.07
2023-02-12T13:46:20.039Z,8.63
2023-02-12T13:49:12.703Z,9.63
2023-02-12T13:51:57.100Z,9.47
2023-02-12T13:54:42.251Z,8.10
2023-02-12T13:57:16.107Z,9.03
2023-02-12T13:59:49.211Z,8.67
2023-02-12T14:02:33.941Z,8.50
2023-02-12T14:05:18.701Z,10.60
2023-02-12T14:07:55.362Z,9.33
2023-02-12T14:10:42.357Z,10.03
2023-02-12T14:13:22.506Z,9.77
2023-02-12T14:15:57.884Z,10.23
2023-02-12T14:18:31.793Z,10.17
2023-02-12T14:21:13.685Z,9.33
2023-02-12T14:23:42.807Z,9.23
2023-02-12T14:26:15.207Z,9.37
2023-02-12T14:28:50.677Z,8.33
2023-02-12T14:31:20.679Z,8.17
2023-02-12T14:34:04.762Z,9.63
2023-02-12T14:36:42.532Z,10.37
2023-02-12T14:39:21.207Z,9.60
2023-02-12T14:41:52.257Z,10.17
2023-02-12T14:44:27.281Z,9.17
2023-02-12T14:47:00.453Z,10.20
2023-02-12T14:49:48.761Z,8.97
2023-02-12T14:52:24.662Z,8.03
2023-02-12T14:54:57.507Z,8.40
2023-02-12T14:57:41.049Z,8.20
2023-02-12T15:00:16.787Z,8.63
2023-02-12T15:03:03.084Z,11.03
2023-02-12T15:05:38.162Z,9.93
2023-02-12T15:08:26.128Z,9.30
2023-02-12T15:11:16.390Z,9.43
2023-02-12T15:13:54.838Z,9.30
2023-02-12T15:16:37.631Z,9.00
2023-02-12T15:19:25.671Z,8.70
2023-02-12T15:21:54.475Z,7.87
2023-02-12T15:24:24.853Z,8.20
2023-02-12T15:26:59.305Z,7.97
2023-02-12T15:29:32.939Z,10.00
2023-02-12T15:32:07.617Z,8.67
2023-02-12T15:34:39.965Z,9.37
2023-02-12T15:37:09.654Z,7.97
2023-02-12T15:39:47.964Z,7.77
2023-02-12T15:42:35.332Z,9.77
2023-02-12T15:45:06.114Z,9.10
2023-02-12T15:47:34.566Z,8.23
2023-02-12T15:50:01.596Z,8.63
2023-02-12T15:52:35.923Z,8.97
2023-02-12T15:55:12.991Z,9.77
2023-02-12T15:57:40.571Z,9.73
2023-02-12T16:00:28.418Z,11.30
2023-02-12T16:02:55.376Z,9.97
2023-02-12T16:05:35.024Z,9.43
2023-02-12T16:08:02.411Z,9.27
2023-02-12T16:10:29.399Z,8.70
2023-02-12T16:12:56.492Z,9.47
2023-02-12T16:15:30.790Z,9.13
2023-02-12T16:17:59.718Z,9.87
2023-02-12T16:20:30.686Z,8.30
2023-02-12T16:22:58.375Z,8.90
2023-02-12T16:25:35.140Z,9.93
2023-02-12T16:28:17.795Z,8.50
2023-02-12T16:30:48.203Z,8.37
2023-02-12T16:33:40.776Z,9.23
2023-02-12T16:36:28.464Z,9.47
2023-02-12T16:39:03.956Z,8.30
2023-02-12T16:41:52.553Z,8.40
2023-02-12T16:44:29.224Z,8.50
2023-02-12T16:47:00.199Z,8.63
2023-02-12T16:49:28.091Z,9.20
2023-02-12T16:52:33.713Z,10.37
2023-02-12T16:55:00.465Z,12.70
2023-02-12T16:57:27.333Z,14.30
2023-02-12T16:59:54.149Z,15.13
2023-02-12T17:02:20.871Z,15.30
2023-02-12T17:04:47.587Z,13.10
2023-02-12T17:07:25.634Z,11.20
2023-02-12T17:09:52.369Z,9.20
2023-02-12T17:12:19.176Z,9.73
2023-02-12T17:14:46.317Z,8.90
2023-02-12T17:17:13.075Z,9.07
2023-02-12T17:19:40.157Z,8.53
2023-02-12T17:22:15.817Z,8.37
2023-02-12T17:24:42.562Z,8.00
2023-02-12T17:27:11.499Z,7.90
2023-02-12T17:29:38.218Z,9.50
2023-02-12T17:32:06.001Z,9.03
2023-02-12T17:34:46.565Z,9.67
2023-02-12T17:37:14.661Z,10.13
2023-02-12T17:39:41.354Z,10.17
2023-02-12T17:42:08.163Z,10.37
2023-02-12T17:44:34.876Z,11.33
2023-02-12T17:47:01.587Z,10.00
2023-02-12T17:49:30.137Z,10.83
2023-02-12T17:51:56.833Z,9.20
2023-02-12T17:54:23.573Z,9.47
2023-02-12T17:56:50.298Z,9.00
2023-02-12T17:59:17.071Z,10.40
2023-02-12T18:01:44.126Z,10.20
2023-02-12T18:04:11.088Z,10.03
2023-02-12T18:06:37.981Z,10.07
2023-02-12T18:09:04.913Z,8.97
2023-02-12T18:11:32.867Z,8.70
2023-02-12T18:14:00.295Z,8.47
2023-02-12T18:16:31.356Z,8.10
2023-02-12T18:18:59.873Z,8.67
2023-02-12T18:21:27.006Z,7.93
2023-02-12T18:23:54.518Z,8.90
2023-02-12T18:26:21.782Z,7.63
2023-02-12T18:28:49.371Z,7.40
2023-02-12T18:31:19.454Z,6.73
2023-02-12T18:33:46.607Z,7.23
2023-02-12T18:36:17.564Z,6.97
2023-02-12T18:38:47.164Z,6.97
2023-02-12T18:41:23.527Z,6.30
2023-02-12T18:43:50.381Z,7.20
2023-02-12T18:46:25.338Z,6.30
2023-02-12T18:48:53.298Z,6.83
2023-02-12T18:51:23.487Z,7.17
2023-02-12T18:54:02.332Z,6.17
2023-02-12T18:56:33.137Z,6.90
2023-02-12T18:59:02.714Z,7.67
2023-02-12T19:01:29.564Z,6.77
2023-02-12T19:04:00.075Z,6.63
2023-02-12T19:06:31.302Z,8.17
2023-02-12T19:09:01.667Z,7.63
2023-02-12T19:11:29.803Z,8.07
2023-02-12T19:13:57.258Z,7.30
2023-02-12T19:16:24.989Z,7.70
2023-02-12T19:18:58.925Z,7.60
2023-02-12T19:21:26.312Z,7.03
2023-02-12T19:23:55.755Z,7.87
2023-02-12T19:26:23.401Z,7.53
2023-02-12T19:28:50.265Z,7.83
2023-02-12T19:31:27.413Z,8.97
2023-02-12T19:33:58.167Z,8.43
2023-02-12T19:36:28.448Z,8.10
2023-02-12T19:38:55.508Z,9.70
2023-02-12T19:41:25.180Z,10.27
2023-02-12T19:44:01.278Z,10.63
2023-02-12T19:46:30.978Z,12.57
2023-02-12T19:49:01.544Z,12.13
2023-02-12T19:51:30.129Z,13.07
2023-02-12T19:54:06.879Z,11.97
2023-02-12T19:56:35.262Z,13.07
2023-02-12T19:59:02.229Z,13.83
2023-02-12T20:01:29.165Z,13.40
2023-02-12T20:03:57.155Z,13.20
2023-02-12T20:06:29.872Z,13.57
2023-02-12T20:08:57.048Z,13.00
2023-02-12T20:11:28.700Z,13.00
2023-02-12T20:13:56.611Z,13.20
2023-02-12T20:16:31.149Z,13.37
2023-02-12T20:19:04.075Z,11.07
2023-02-12T20:21:31.661Z,12.07
2023-02-12T20:23:59.471Z,10.50
2023-02-12T20:26:26.175Z,10.40
2023-02-12T20:28:52.951Z,9.43
2023-02-12T20:31:33.205Z,8.77
2023-02-12T20:34:04.912Z,8.13
2023-02-12T20:36:36.673Z,8.50
2023-02-12T20:39:06.263Z,7.50
2023-02-12T20:41:36.882Z,7.93
2023-02-12T20:44:11.017Z,8.03
2023-02-12T20:46:39.471Z,7.40
2023-02-12T20:49:06.972Z,7.10
2023-02-12T20:51:34.331Z,7.20
2023-02-12T20:54:02.849Z,7.70
2023-02-12T20:56:33.615Z,7.50
2023-02-12T20:59:01.225Z,6.73
2023-02-12T21:01:36.213Z,6.60
2023-02-12T21:04:10.304Z,5.97
2023-02-12T21:06:40.019Z,6.27
2023-02-12T21:09:13.147Z,5.87
2023-02-12T21:11:42.655Z,5.43
2023-02-12T21:14:26.015Z,5.17
2023-02-12T21:16:55.757Z,5.00
2023-02-12T21:19:23.745Z,4.70
2023-02-12T21:21:50.727Z,4.67
2023-02-12T21:24:24.831Z,4.97
2023-02-12T21:26:53.731Z,4.90
2023-02-12T21:29:21.433Z,4.97
2023-02-12T21:31:50.168Z,5.47
2023-02-12T21:34:23.177Z,5.40
2023-02-12T21:36:53.534Z,5.20
2023-02-12T21:39:25.930Z,5.33
2023-02-12T21:42:02.720Z,5.23
2023-02-12T21:44:32.348Z,5.30
2023-02-12T21:46:59.198Z,5.33
2023-02-12T21:49:27.894Z,5.70
2023-02-12T21:52:04.580Z,5.10
2023-02-12T21:54:31.744Z,5.93
2023-02-12T21:56:59.319Z,5.43
2023-02-12T21:59:27.481Z,5.80
2023-02-12T22:01:58.082Z,5.27
2023-02-12T22:04:25.031Z,5.13
2023-02-12T22:06:52.759Z,5.73
2023-02-12T22:09:22.006Z,5.80
2023-02-12T22:11:51.866Z,5.00
2023-02-12T22:14:19.108Z,5.07
2023-02-12T22:16:47.310Z,5.27
2023-02-12T22:19:14.286Z,4.77
2023-02-12T22:21:43.463Z,4.60
2023-02-12T22:24:15.059Z,4.73
2023-02-12T22:26:42.723Z,4.70
2023-02-12T22:29:13.149Z,4.70
2023-02-12T22:31:42.642Z,4.80
2023-02-12T22:34:17.260Z,4.53
2023-02-12T22:36:46.348Z,4.13
2023-02-12T22:39:14.214Z,4.70
2023-02-12T22:41:42.233Z,4.37
2023-02-12T22:44:11.938Z,3.67
2023-02-12T22:46:38.845Z,4.13
2023-02-12T22:49:05.621Z,3.83
2023-02-12T22:51:34.359Z,3.93
2023-02-12T22:54:01.225Z,4.63
2023-02-12T22:56:28.104Z,4.23
2023-02-12T22:59:01.120Z,4.13
2023-02-12T23:01:29.678Z,4.70
2023-02-12T23:03:57.004Z,4.40
2023-02-12T23:06:29.163Z,4.63
2023-02-12T23:08:59.662Z,4.17
2023-02-12T23:11:29.535Z,3.50
2023-02-12T23:13:58.063Z,3.70
2023-02-12T23:16:24.914Z,3.43
2023-02-12T23:18:56.962Z,3.20
2023-02-12T23:21:25.854Z,3.33
2023-02-12T23:23:52.970Z,3.30
2023-02-12T23:26:19.747Z,3.03
2023-02-12T23:28:46.567Z,3.17
2023-02-12T23:31:13.471Z,2.83
2023-02-12T23:33:40.292Z,2.80
2023-02-12T23:36:07.525Z,2.80
2023-02-12T23:38:34.250Z,2.30
2023-02-12T23:41:00.995Z,2.60
2023-02-12T23:43:27.847Z,2.70
2023-02-12T23:45:54.644Z,2.60
2023-02-12T23:48:21.366Z,2.47
2023-02-12T23:50:49.789Z,2.73
2023-02-12T23:53:18.874Z,2.60
2023-02-12T23:55:45.755Z,2.60
2023-02-12T23:58:12.509Z,2.10
